Latest Weather Observations for Aireys Inlet

IDV60801

Issued at 3:32 pm EST Monday 29 May 2017 (issued every 30 minutes, with the page automatically refreshed every 10 minutes)

About weather observations | Map of weather stations | Latest weather observations for VIC | Other Formats
Station Details ID: 090180 Name: AIREYS INLET Lat: -38.46 Lon: 144.09 Height: 105.0 m
Data from the previous 72 hours. | See also: Recent months at Aireys Inlet
Date/Time
EST
Temp
°C
App
Temp
°C
Dew
Point
°C
Rel
Hum
%
Delta-T
°C
Wind Press
QNH
hPa
Press
MSL
hPa
Rain since
9am
mm
Dir  Spd
km/h
Gust
km/h
Spd
kts
Gust
kts
29/03:30pm 11.9 8.2 6.4 69 2.6 NW 15 32 8 17 - - 0.0
29/03:00pm 12.1 7.7 6.6 69 2.6 NW 19 26 10 14 - - 0.0
29/02:30pm 12.5 7.5 6.5 67 2.9 WNW 22 35 12 19 - - 0.0
29/02:00pm 12.6 6.9 6.6 67 2.9 NW 26 43 14 23 - - 0.0
29/01:30pm 13.0 8.7 6.8 66 3.0 NW 19 33 10 18 - - 0.0
29/01:00pm 12.4 8.0 6.7 68 2.7 NW 19 32 10 17 - - 0.0
29/12:30pm 12.3 8.3 6.6 68 2.7 W 17 32 9 17 - - 0.0
29/12:00pm 11.3 7.2 6.4 72 2.3 W 17 30 9 16 - - 0.0
29/11:30am 10.9 6.3 6.5 74 2.1 NW 20 33 11 18 - - 0.0
29/11:00am 10.0 4.5 6.0 76 1.9 NW 24 37 13 20 - - 0.0
29/10:30am 9.6 3.4 6.0 78 1.7 WNW 28 44 15 24 - - 0.0
29/10:00am 8.7 4.5 5.8 82 1.3 NW 17 28 9 15 - - 0.0
29/09:30am 8.0 3.5 6.0 87 0.9 NW 19 32 10 17 - - 0.0
29/09:00am 7.3 3.0 5.4 88 0.8 NW 17 28 9 15 - - 0.0
29/08:30am 7.2 2.6 5.7 90 0.7 WNW 19 28 10 15 - - 0.0
29/08:00am 6.8 2.2 5.6 92 0.5 NW 19 26 10 14 - - 0.0
29/07:30am 6.4 0.8 5.2 92 0.5 NW 24 35 13 19 - - 0.0
29/07:00am 6.5 1.2 5.1 91 0.6 NW 22 33 12 18 - - 0.0
29/06:30am 6.5 1.2 5.0 90 0.7 NW 22 30 12 16 - - 0.0
29/06:00am 6.3 1.3 4.6 89 0.7 NW 20 32 11 17 - - 0.0
29/05:30am 6.4 1.4 4.6 88 0.8 NW 20 26 11 14 - - 0.0
29/05:00am 6.9 1.5 4.7 86 1.0 WNW 22 30 12 16 - - 0.0
29/04:30am 6.2 0.4 4.4 88 0.8 NW 24 35 13 19 - - 0.0
29/04:00am 6.2 1.1 4.2 87 0.9 NW 20 28 11 15 - - 0.0
29/03:30am 6.0 0.2 4.2 88 0.8 NW 24 32 13 17 - - 0.0
29/03:00am 6.1 1.2 4.3 88 0.8 NW 19 24 10 13 - - 0.0
29/02:30am 6.3 1.8 4.3 87 0.9 WNW 17 24 9 13 - - 0.0
29/02:00am 6.5 1.5 4.5 87 0.9 NW 20 28 11 15 - - 0.0
29/01:30am 7.8 3.6 3.8 76 1.7 W 15 22 8 12 - - 0.0
29/01:00am 7.9 2.0 4.1 77 1.7 W 24 32 13 17 - - 0.0
29/12:30am 6.9 1.9 4.7 86 1.0 WNW 20 33 11 18 - - 0.0
29/12:00am 6.4 1.6 4.4 87 0.9 NW 19 26 10 14 - - 0.0
 
Date/Time
EST
Temp
°C
App
Temp
°C
Dew
Point
°C
Rel
Hum
%
Delta-T
°C
Wind Press
QNH
hPa
Press
MSL
hPa
Rain since
9am
mm
Dir  Spd
km/h
Gust
km/h
Spd
kts
Gust
kts
28/11:30pm 7.3 2.2 4.1 80 1.4 W 20 33 11 18 - - 0.0
28/11:00pm 6.4 2.7 4.4 87 0.9 WNW 13 22 7 12 - - 0.0
28/10:30pm 7.2 2.7 4.2 81 1.3 W 17 26 9 14 - - 0.0
28/10:00pm 7.3 2.4 3.9 79 1.5 WNW 19 26 10 14 - - 0.0
28/09:30pm 7.4 1.9 4.2 80 1.4 W 22 32 12 17 - - 0.0
28/09:00pm 7.6 2.1 4.0 78 1.6 W 22 32 12 17 - - 0.0
28/08:30pm 7.4 1.1 4.0 79 1.5 W 26 37 14 20 - - 0.0
28/08:00pm 6.8 1.5 4.8 87 0.9 WNW 22 32 12 17 - - 0.0
28/07:30pm 7.4 2.4 4.7 83 1.2 WNW 20 30 11 16 - - 0.0
28/07:00pm 7.2 2.2 4.5 83 1.2 WNW 20 28 11 15 - - 0.0
28/06:30pm 7.2 2.3 4.2 81 1.3 WNW 19 28 10 15 - - 0.0
28/06:00pm 7.8 4.1 4.4 79 1.5 WNW 13 19 7 10 - - 0.0
28/05:30pm 8.0 3.7 5.1 82 1.3 WNW 17 26 9 14 - - 0.0
28/05:00pm 8.2 3.9 5.3 82 1.3 W 17 24 9 13 - - 0.0
28/04:30pm 8.8 5.2 5.2 78 1.6 W 13 22 7 12 - - 0.0
28/04:00pm 9.7 3.8 4.1 68 2.5 W 24 33 13 18 - - 0.0
28/03:30pm 8.1 3.2 4.3 77 1.7 WNW 19 28 10 15 - - 0.0
28/03:00pm 8.3 3.8 4.1 75 1.8 W 17 30 9 16 - - 0.0
28/02:30pm 9.7 6.5 5.1 73 2.1 W 11 24 6 13 - - 0.0
28/02:00pm 10.2 5.4 5.4 72 2.2 W 20 32 11 17 - - 0.0
28/01:30pm 10.3 5.9 4.9 69 2.5 W 17 30 9 16 - - 0.0
28/01:00pm 10.9 6.3 5.7 70 2.4 WNW 19 39 10 21 - - 0.0
28/12:30pm 12.3 5.7 5.9 65 3.0 WNW 30 46 16 25 - - 0.0
28/12:08pm 11.5 5.0 4.9 64 3.0 NW 28 50 15 27 - - 0.0
28/12:00pm 12.1 5.8 5.9 66 2.9 WNW 28 43 15 23 - - 0.0
28/11:30am 11.9 8.1 7.6 75 2.1 WNW 17 35 9 19 - - 0.0
28/11:00am 10.3 8.4 6.5 77 1.8 W 6 13 3 7 - - 0.0
28/10:30am 9.7 5.6 6.2 79 1.6 WNW 17 37 9 20 - - 0.0
28/10:00am 9.4 5.0 6.7 83 1.3 NW 19 30 10 16 - - 0.0
28/09:30am 9.1 5.0 6.4 83 1.3 WNW 17 28 9 15 - - 0.0
28/09:00am 9.0 3.7 6.6 85 1.1 NW 24 39 13 21 - - 11.8
28/08:30am 9.2 2.7 6.6 84 1.2 WNW 30 43 16 23 - - 11.8
28/08:00am 9.3 4.0 6.9 85 1.1 WNW 24 39 13 21 - - 11.8
28/07:30am 9.1 4.2 6.7 85 1.1 WNW 22 39 12 21 - - 11.8
28/07:02am 9.4 3.0 7.0 85 1.1 WNW 30 48 16 26 - - 11.8
28/07:00am 9.5 2.5 6.9 84 1.2 WNW 33 48 18 26 - - 11.8
28/06:52am 9.4 3.4 7.0 85 1.1 NW 28 48 15 26 - - 11.8
28/06:30am 9.4 4.2 7.3 87 1.0 NW 24 41 13 22 - - 11.8
28/06:00am 9.7 6.0 7.8 88 0.9 NW 17 32 9 17 - - 11.8
28/05:30am 9.9 5.9 8.3 90 0.8 NW 19 30 10 16 - - 11.8
28/05:00am 10.0 6.8 8.6 91 0.7 NW 15 20 8 11 - - 11.8
28/04:30am 9.9 6.8 8.7 92 0.6 NW 15 24 8 13 - - 11.6
28/04:00am 9.7 7.0 8.8 94 0.4 WNW 13 20 7 11 - - 11.6
28/03:30am 9.7 7.0 8.8 94 0.4 NW 13 20 7 11 - - 11.6
28/03:00am 9.9 6.4 8.7 92 0.6 NW 17 26 9 14 - - 11.2
28/02:30am 9.9 6.4 8.8 93 0.5 NW 17 26 9 14 - - 11.2
28/02:00am 10.0 6.5 8.9 93 0.5 NW 17 28 9 15 - - 11.2
28/01:30am 9.9 6.4 8.8 93 0.5 NNW 17 32 9 17 - - 11.2
28/01:00am 10.0 6.2 9.1 94 0.4 NNW 19 30 10 16 - - 11.2
28/12:30am 10.4 6.5 9.5 94 0.5 NW 20 32 11 17 - - 11.0
28/12:00am 10.5 6.8 9.6 94 0.5 NNW 19 33 10 18 - - 10.0
 
Date/Time
EST
Temp
°C
App
Temp
°C
Dew
Point
°C
Rel
Hum
%
Delta-T
°C
Wind Press
QNH
hPa
Press
MSL
hPa
Rain since
9am
mm
Dir  Spd
km/h
Gust
km/h
Spd
kts
Gust
kts
27/11:30pm 10.5 7.2 9.6 94 0.5 NW 17 26 9 14 - - 9.0
27/11:00pm 10.6 6.8 9.7 94 0.5 WNW 20 33 11 18 - - 6.0
27/10:30pm 10.6 5.9 9.4 92 0.6 NW 24 41 13 22 - - 4.4
27/10:00pm 13.8 8.8 9.5 75 2.2 NNW 26 52 14 28 - - 0.2
27/09:30pm 13.8 9.6 9.6 76 2.2 N 22 33 12 18 - - 0.2
27/09:00pm 14.2 9.2 9.6 74 2.4 N 26 39 14 21 - - 0.2
27/08:30pm 14.4 10.5 9.6 73 2.5 N 20 33 11 18 - - 0.2
27/08:00pm 14.6 10.4 9.6 72 2.6 N 22 41 12 22 - - 0.2
27/07:30pm 14.7 10.4 9.5 71 2.7 N 22 37 12 20 - - 0.2
27/07:15pm 14.8 9.4 9.4 70 2.8 N 28 50 15 27 - - 0.2
27/07:00pm 15.0 9.2 9.4 69 2.9 N 30 46 16 25 - - 0.2
27/06:30pm 15.2 10.0 8.9 66 3.2 N 26 43 14 23 - - 0.2
27/06:00pm 14.6 10.4 9.6 72 2.6 NNE 22 35 12 19 - - 0.2
27/05:30pm 14.8 11.1 10.0 73 2.5 N 20 35 11 19 - - 0.2
27/05:00pm 15.9 11.9 9.1 64 3.5 N 20 35 11 19 - - 0.0
27/04:30pm 16.0 11.3 9.4 65 3.4 N 24 37 13 20 - - 0.0
27/04:00pm 16.0 12.2 9.7 66 3.3 NNE 20 32 11 17 - - 0.0
27/03:30pm 16.0 12.7 9.7 66 3.3 NNE 17 28 9 15 - - 0.0
27/03:00pm 16.2 12.0 9.6 65 3.5 N 22 35 12 19 - - 0.0
27/02:30pm 16.5 12.6 9.4 63 3.7 N 20 39 11 21 - - 0.0
27/02:00pm 16.7 12.3 9.1 61 3.9 N 22 37 12 20 - - 0.0
27/01:30pm 17.3 12.6 9.2 59 4.2 N 24 39 13 21 - - 0.0
27/01:00pm 17.1 13.2 9.5 61 4.0 N 20 32 11 17 - - 0.0
27/12:30pm 17.1 11.7 9.5 61 4.0 NNW 28 46 15 25 - - 0.0
27/12:03pm 17.0 11.2 9.4 61 4.0 NNW 30 50 16 27 - - 0.0
27/12:00pm 17.1 11.3 9.5 61 4.0 NNW 30 48 16 26 - - 0.0
27/11:30am 16.5 10.8 9.7 64 3.6 NNW 30 48 16 26 - - 0.0
27/11:00am 15.6 9.2 9.5 67 3.2 NNW 33 54 18 29 - - 0.0
27/10:39am 15.1 9.7 9.5 69 2.9 NNW 28 46 15 25 - - 0.0
27/10:30am 15.2 10.3 9.8 70 2.8 NNW 26 41 14 22 - - 0.0
27/10:02am 14.4 9.0 9.4 72 2.6 NNW 28 46 15 25 - - 0.0
27/10:00am 14.4 9.0 9.4 72 2.6 NNW 28 44 15 24 - - 0.0
27/09:30am 13.8 8.0 9.3 74 2.3 NNW 30 48 16 26 - - 0.0
27/09:12am 13.4 7.5 9.1 75 2.2 NNW 30 50 16 27 - - 0.0
27/09:00am 13.4 7.5 8.9 74 2.3 NNW 30 46 16 25 - - 0.0
27/08:45am 13.3 7.4 9.0 75 2.2 NNW 30 48 16 26 - - 0.0
27/08:30am 13.1 7.6 9.0 76 2.1 NNW 28 44 15 24 - - 0.0
27/08:00am 12.6 7.5 9.1 79 1.8 N 26 37 14 20 - - 0.0
27/07:35am 12.4 6.9 9.1 80 1.7 N 28 48 15 26 - - 0.0
27/07:30am 12.3 6.4 9.0 80 1.7 N 30 48 16 26 - - 0.0
27/07:00am 12.2 6.7 9.2 82 1.5 NNW 28 46 15 25 - - 0.0
27/06:47am 12.4 6.9 9.2 81 1.6 NNW 28 50 15 27 - - 0.0
27/06:30am 12.3 7.7 9.5 83 1.4 NNW 24 41 13 22 - - 0.0
27/06:00am 12.1 7.8 9.5 84 1.3 NNW 22 33 12 18 - - 0.0
27/05:30am 11.9 8.3 9.8 87 1.1 N 19 32 10 17 - - 0.0
27/05:00am 11.5 8.6 9.8 89 0.9 N 15 24 8 13 - - 0.0
27/04:30am 11.6 7.8 9.9 89 0.9 N 20 30 11 16 - - 0.0
27/04:00am 11.4 7.2 9.8 90 0.8 N 22 35 12 19 - - 0.0
27/03:30am 11.4 7.3 10.0 91 0.7 N 22 37 12 20 - - 0.0
27/03:00am 11.2 7.0 9.6 90 0.8 N 22 39 12 21 - - 0.0
27/02:30am 11.0 7.1 9.4 90 0.8 NNW 20 32 11 17 - - 0.0
27/02:00am 10.6 7.1 8.9 89 0.8 NNW 17 22 9 12 - - 0.0
27/01:30am 10.3 7.5 8.4 88 0.9 NNW 13 22 7 12 - - 0.0
27/01:00am 10.3 7.7 7.9 85 1.2 NNW 11 17 6 9 - - 0.0
27/12:30am 10.4 7.4 7.8 84 1.3 NNW 13 20 7 11 - - 0.0
27/12:00am 10.2 7.5 7.4 83 1.3 NNW 11 19 6 10 - - 0.0
 
Date/Time
EST
Temp
°C
App
Temp
°C
Dew
Point
°C
Rel
Hum
%
Delta-T
°C
Wind Press
QNH
hPa
Press
MSL
hPa
Rain since
9am
mm
Dir  Spd
km/h
Gust
km/h
Spd
kts
Gust
kts
26/11:30pm 10.5 7.9 7.6 82 1.4 NNW 11 17 6 9 - - 0.0
26/11:00pm 10.4 7.2 6.9 79 1.7 NNW 13 17 7 9 - - 0.0
26/10:30pm 10.6 7.7 6.7 77 1.8 NNW 11 17 6 9 - - 0.0
26/10:00pm 10.0 6.7 6.2 77 1.8 NNW 13 15 7 8 - - 0.0
26/09:30pm 8.6 6.0 6.2 85 1.1 NNE 9 9 5 5 - - 0.0
26/09:00pm 8.5 6.3 6.0 84 1.1 N 7 9 4 5 - - 0.0
26/08:30pm 8.4 6.2 6.2 86 1.0 NNW 7 9 4 5 - - 0.0
26/08:00pm 9.2 6.6 6.3 82 1.3 NNW 9 11 5 6 - - 0.0
26/07:30pm 9.1 6.6 6.5 84 1.2 NNW 9 13 5 7 - - 0.0
26/07:00pm 9.1 7.0 6.5 84 1.2 NNW 7 9 4 5 - - 0.0
26/06:30pm 9.4 7.3 6.8 84 1.2 NNW 7 9 4 5 - - 0.0
26/06:00pm 9.7 7.3 7.1 84 1.2 NNW 9 13 5 7 - - 0.0
26/05:30pm 11.2 9.7 6.7 74 2.1 NNW 4 6 2 3 - - 0.0
26/05:00pm 11.8 10.9 5.9 67 2.8 CALM 0 0 0 0 - - 0.0
26/04:30pm 12.7 11.4 5.8 63 3.3 ENE 2 6 1 3 - - 0.0
26/04:00pm 13.2 11.5 5.9 61 3.5 E 4 6 2 3 - - 0.0

Other Formats:

Comma delimited format used in spreadsheet applications
http://www.bom.gov.au/fwo/IDV60801/IDV60801.94846.axf

JavaScript Object Notation format (JSON) in row-major order
http://www.bom.gov.au/fwo/IDV60801/IDV60801.94846.json